Time;durP1;ratioP1;P1;durP2;ratioP2;P2;SDS_P1;SDS_P2;PMS_P1;PMS_P2;Temp;Humidity;BMP_temperature;BMP_pressure;BME280_temperature;BME280_humidity;BME280_pressure;Samples;Min_cycle;Max_cycle;Signal;HPM_P1;HPM_P2
2022/01/24 00:02:26;;;;;;;4.13;2.07;;;9.80;52.60;;;;;;5074390;28;20410;-50
2022/01/24 00:04:52;;;;;;;5.97;2.67;;;9.80;52.50;;;;;;5074075;28;20221;-50
2022/01/24 00:07:20;;;;;;;7.00;3.53;;;9.80;52.50;;;;;;5073866;28;20169;-50
2022/01/24 00:09:47;;;;;;;7.53;2.10;;;9.90;52.70;;;;;;5073789;28;20224;-50
2022/01/24 00:12:19;;;;;;;4.28;1.42;;;9.80;52.50;;;;;;5073592;28;20196;-50
2022/01/24 00:15:35;;;;;;;3.95;2.88;;;9.80;52.60;;;;;;5073803;28;20164;-50
2022/01/24 00:17:47;;;;;;;2.78;1.45;;;9.80;52.60;;;;;;5073502;28;20191;-50
2022/01/24 00:28:09;;;;;;;2.35;1.02;;;9.80;52.70;;;;;;5073833;28;20171;-50
2022/01/24 00:30:35;;;;;;;2.40;1.33;;;9.80;52.80;;;;;;5073497;28;20171;-50
2022/01/24 00:33:00;;;;;;;5.03;1.67;;;9.80;52.80;;;;;;5073449;28;20208;-50
2022/01/24 00:35:26;;;;;;;7.20;1.93;;;9.70;52.90;;;;;;5073359;28;20919;-50
2022/01/24 00:37:52;;;;;;;4.40;2.17;;;9.80;52.90;;;;;;5073461;28;20168;-50
2022/01/24 00:40:18;;;;;;;4.97;1.73;;;9.80;52.90;;;;;;5073338;28;20173;-50
2022/01/24 00:55:41;;;;;;;2.90;2.00;;;9.80;52.80;;;;;;5077796;28;20164;-50
2022/01/24 00:58:06;;;;;;;7.50;2.38;;;9.80;52.80;;;;;;5077341;28;20160;-50
2022/01/24 01:00:32;;;;;;;3.37;2.53;;;9.80;52.80;;;;;;5077540;28;20170;-50
2022/01/24 01:02:58;;;;;;;4.90;2.27;;;9.80;52.80;;;;;;5077308;28;20642;-50
2022/01/24 01:18:04;;;;;;;12.25;2.70;;;9.80;52.70;;;;;;5077241;28;20180;-50
2022/01/24 01:18:53;;;;;;;2.97;1.30;;;9.70;52.80;;;;;;5077303;28;20521;-50
2022/01/24 01:21:19;;;;;;;4.00;1.40;;;9.70;52.90;;;;;;5076989;28;20168;-50
2022/01/24 01:23:51;;;;;;;8.10;1.60;;;9.70;52.80;;;;;;5075942;28;20290;-50
2022/01/24 01:26:42;;;;;;;4.82;1.40;;;9.70;52.80;;;;;;5077107;28;20317;-50
2022/01/24 01:29:17;;;;;;;4.47;1.65;;;9.70;52.80;;;;;;5076782;28;20153;-49
2022/01/24 01:55:36;;;;;;;1.70;1.08;;;9.70;52.50;;;;;;5076279;28;20181;-50
2022/01/24 01:58:05;;;;;;;1.60;0.80;;;9.70;52.50;;;;;;5076514;28;20558;-50
2022/01/24 02:00:31;;;;;;;2.38;1.23;;;9.70;52.50;;;;;;5076297;28;20164;-50
2022/01/24 02:02:57;;;;;;;3.58;1.77;;;9.70;52.50;;;;;;5075190;28;20270;-50
2022/01/24 02:05:23;;;;;;;3.97;2.03;;;9.70;52.60;;;;;;5076051;28;20172;-50
2022/01/24 02:07:50;;;;;;;4.70;2.80;;;9.70;52.50;;;;;;5076042;28;20222;-50
2022/01/24 02:10:18;;;;;;;3.10;1.60;;;9.70;52.50;;;;;;5074726;28;20450;-50
2022/01/24 02:12:44;;;;;;;1.70;1.10;;;9.70;52.50;;;;;;5075808;28;20200;-50
2022/01/24 02:15:11;;;;;;;2.92;1.95;;;9.70;52.50;;;;;;5075194;28;20183;-50
2022/01/24 02:18:04;;;;;;;2.72;1.60;;;9.70;52.50;;;;;;5076334;28;20290;-50
2022/01/24 02:25:51;;;;;;;1.83;1.00;;;9.50;52.80;;;;;;5075719;28;20268;-50
2022/01/24 02:28:19;;;;;;;13.32;2.45;;;9.50;52.80;;;;;;5074381;28;20176;-50
2022/01/24 02:33:22;;;;;;;3.20;1.85;;;9.50;52.90;;;;;;5075669;28;20161;-50
2022/01/24 02:35:48;;;;;;;2.75;0.98;;;9.50;52.90;;;;;;5075540;28;20570;-50
2022/01/24 02:49:33;;;;;;;2.55;1.02;;;9.50;53.10;;;;;;5075309;28;20513;-50
2022/01/24 02:52:12;;;;;;;1.63;0.68;;;9.50;53.00;;;;;;5075215;28;20195;-50
2022/01/24 02:54:39;;;;;;;3.38;0.73;;;9.50;52.90;;;;;;5075323;28;20157;-50
2022/01/24 02:57:06;;;;;;;1.30;1.00;;;9.40;53.00;;;;;;5075145;28;20172;-50
2022/01/24 02:59:33;;;;;;;4.35;1.30;;;9.40;53.00;;;;;;5075060;28;20163;-50
2022/01/24 03:01:59;;;;;;;3.92;1.38;;;9.40;53.10;;;;;;5073786;28;20172;-50
2022/01/24 03:04:25;;;;;;;2.33;1.25;;;9.50;53.10;;;;;;5074928;28;20176;-50
2022/01/24 03:06:51;;;;;;;3.20;1.13;;;9.50;52.90;;;;;;5074921;28;20222;-50
2022/01/24 03:09:17;;;;;;;2.95;1.10;;;9.50;52.80;;;;;;5074887;28;20187;-50
2022/01/24 03:12:06;;;;;;;3.85;1.60;;;9.50;52.70;;;;;;5074967;28;20200;-50
2022/01/24 03:14:35;;;;;;;2.90;0.70;;;9.50;52.70;;;;;;5074600;28;20195;-50
2022/01/24 03:17:02;;;;;;;2.00;0.98;;;9.50;52.60;;;;;;5074822;28;20194;-50
2022/01/24 03:19:28;;;;;;;2.08;1.42;;;9.40;52.60;;;;;;5074605;28;20172;-50
2022/01/24 03:21:54;;;;;;;1.67;1.17;;;9.40;52.60;;;;;;5074461;28;20216;-50
2022/01/24 03:24:20;;;;;;;2.08;0.85;;;9.40;52.60;;;;;;5074600;28;20172;-50
2022/01/24 03:26:47;;;;;;;3.20;1.10;;;9.40;52.60;;;;;;5074560;28;20178;-50
2022/01/24 03:29:13;;;;;;;3.13;0.90;;;9.50;52.50;;;;;;5074576;28;20168;-50
2022/01/24 03:31:40;;;;;;;2.38;1.13;;;9.40;52.40;;;;;;5074403;28;20199;-50
2022/01/24 03:34:06;;;;;;;2.08;1.48;;;9.40;52.40;;;;;;5074414;28;20187;-50
2022/01/24 03:36:32;;;;;;;2.15;0.88;;;9.40;52.30;;;;;;5074328;28;20270;-50
2022/01/24 03:38:58;;;;;;;2.40;1.02;;;9.40;52.30;;;;;;5074277;28;20501;-50
2022/01/24 03:41:24;;;;;;;2.60;0.83;;;9.40;52.30;;;;;;5074241;28;20174;-50
2022/01/24 03:43:50;;;;;;;2.10;0.87;;;9.40;52.20;;;;;;5074235;28;20434;-50
2022/01/24 03:48:51;;;;;;;3.80;1.73;;;9.40;52.30;;;;;;5074426;28;20410;-50
2022/01/24 03:51:18;;;;;;;2.90;1.63;;;9.40;52.30;;;;;;5074238;28;20193;-50
2022/01/24 03:53:45;;;;;;;2.72;1.10;;;9.40;52.30;;;;;;5072713;28;20258;-50
2022/01/24 03:56:11;;;;;;;2.00;1.00;;;9.40;52.30;;;;;;5073949;28;20314;-50
2022/01/24 03:59:03;;;;;;;3.90;1.60;;;9.40;52.30;;;;;;5073934;28;20651;-50
2022/01/24 04:01:28;;;;;;;2.28;1.10;;;9.40;52.30;;;;;;5073894;28;20397;-50
2022/01/24 04:03:54;;;;;;;3.43;0.80;;;9.40;52.30;;;;;;5073946;28;20517;-50
2022/01/24 04:06:20;;;;;;;2.53;1.47;;;9.30;52.30;;;;;;5073868;28;20171;-50
2022/01/24 04:08:46;;;;;;;1.73;0.82;;;9.30;52.30;;;;;;5073955;28;20175;-50
2022/01/24 04:11:13;;;;;;;1.70;0.70;;;9.30;52.20;;;;;;5073938;28;20683;-50
2022/01/24 04:13:43;;;;;;;4.00;1.42;;;9.30;52.30;;;;;;5073891;28;20169;-50
2022/01/24 04:18:44;;;;;;;2.90;0.80;;;9.30;52.30;;;;;;5073931;28;20176;-50
2022/01/24 04:21:33;;;;;;;5.47;1.27;;;9.30;52.20;;;;;;5073927;28;20227;-50
2022/01/24 04:24:06;;;;;;;1.30;0.88;;;9.30;52.30;;;;;;5073707;28;20173;-50
2022/01/24 04:26:33;;;;;;;3.85;1.92;;;9.20;52.90;;;;;;5072878;28;20642;-50
2022/01/24 04:28:59;;;;;;;3.47;1.83;;;9.20;52.50;;;;;;5072228;28;20539;-50
2022/01/24 04:31:25;;;;;;;5.80;2.55;;;9.10;52.60;;;;;;5073332;28;20185;-50
2022/01/24 04:33:51;;;;;;;3.92;2.30;;;9.10;52.80;;;;;;5072203;28;20309;-50
2022/01/24 04:36:18;;;;;;;1.45;0.98;;;9.10;52.90;;;;;;5073402;28;20230;-50
2022/01/24 04:38:45;;;;;;;3.05;1.20;;;9.20;52.80;;;;;;5072159;28;20168;-50
2022/01/24 04:41:21;;;;;;;1.48;0.90;;;9.20;52.70;;;;;;5073379;28;20165;-50
2022/01/24 04:54:46;;;;;;;2.90;1.35;;;9.20;52.40;;;;;;5073371;28;20169;-50
2022/01/24 04:57:24;;;;;;;3.10;1.13;;;9.20;52.40;;;;;;5072063;28;20172;-50
2022/01/24 04:59:51;;;;;;;4.32;1.77;;;9.20;52.30;;;;;;5071958;28;20255;-50
2022/01/24 05:02:18;;;;;;;6.88;1.67;;;9.20;52.40;;;;;;5073155;28;20167;-50
2022/01/24 05:04:44;;;;;;;3.65;1.98;;;9.20;52.40;;;;;;5073274;28;20198;-50
2022/01/24 05:07:16;;;;;;;4.80;1.40;;;9.30;52.40;;;;;;5073112;28;20181;-50
2022/01/24 05:09:53;;;;;;;3.72;1.50;;;9.30;52.30;;;;;;5073105;28;20628;-50
2022/01/24 05:25:58;;;;;;;2.55;1.48;;;9.10;52.70;;;;;;5072942;28;20611;-50
2022/01/24 05:28:24;;;;;;;2.97;1.27;;;9.10;52.80;;;;;;5072936;28;20221;-50
2022/01/24 05:30:50;;;;;;;9.77;1.67;;;9.10;52.80;;;;;;5072866;28;20169;-50
2022/01/24 05:33:16;;;;;;;3.67;1.30;;;9.20;52.90;;;;;;5071468;28;20953;-50
2022/01/24 05:35:41;;;;;;;3.90;1.67;;;9.20;52.90;;;;;;5072951;28;20175;-50
2022/01/24 05:38:07;;;;;;;2.93;1.13;;;9.30;52.90;;;;;;5074670;28;20410;-50
2022/01/24 05:40:33;;;;;;;3.00;1.87;;;9.30;52.70;;;;;;5076504;28;20187;-50
2022/01/24 05:42:59;;;;;;;1.73;1.13;;;9.30;52.60;;;;;;5075113;28;20413;-50
2022/01/24 05:45:25;;;;;;;1.73;1.30;;;9.40;52.50;;;;;;5076374;28;20416;-51
2022/01/24 05:47:50;;;;;;;5.17;2.50;;;9.30;52.30;;;;;;5076275;28;20196;-51
2022/01/24 05:50:16;;;;;;;2.20;1.07;;;9.30;52.30;;;;;;5076323;28;20496;-51
2022/01/24 05:52:42;;;;;;;4.07;1.50;;;9.30;52.30;;;;;;5074866;28;20258;-51
2022/01/24 05:55:08;;;;;;;1.87;1.13;;;9.30;52.30;;;;;;5076230;28;20209;-50
2022/01/24 05:57:36;;;;;;;2.90;1.30;;;9.30;52.30;;;;;;5074895;28;20414;-50
2022/01/24 06:00:07;;;;;;;4.55;2.08;;;9.30;52.30;;;;;;5076334;28;20187;-51
2022/01/24 06:02:33;;;;;;;3.38;1.30;;;9.30;52.30;;;;;;5076067;28;20160;-50
2022/01/24 06:04:58;;;;;;;2.57;1.50;;;9.30;52.30;;;;;;5076014;28;20255;-50
2022/01/24 06:07:24;;;;;;;3.13;1.67;;;9.40;52.30;;;;;;5075976;28;20632;-50
2022/01/24 06:09:50;;;;;;;2.87;1.43;;;9.40;52.30;;;;;;5075923;28;20176;-51
2022/01/24 06:12:16;;;;;;;3.87;1.20;;;9.40;52.30;;;;;;5075834;28;20234;-50
2022/01/24 06:14:41;;;;;;;1.83;1.20;;;9.40;52.20;;;;;;5075958;28;20221;-51
2022/01/24 06:17:08;;;;;;;2.40;1.30;;;9.40;52.20;;;;;;5075750;28;20489;-50
2022/01/24 06:19:33;;;;;;;2.92;1.30;;;9.30;52.10;;;;;;5076048;28;20171;-50
2022/01/24 06:21:59;;;;;;;7.90;2.43;;;9.30;52.20;;;;;;5075589;28;20227;-50
2022/01/24 06:24:25;;;;;;;4.90;1.67;;;9.30;52.30;;;;;;5075712;28;20411;-50
2022/01/24 06:26:50;;;;;;;3.27;1.60;;;9.30;52.30;;;;;;5074409;28;20641;-50
2022/01/24 06:29:17;;;;;;;2.43;0.90;;;9.30;52.30;;;;;;5075566;28;20179;-51
2022/01/24 06:31:43;;;;;;;4.60;1.65;;;9.30;52.60;;;;;;5075718;28;20255;-50
2022/01/24 06:34:08;;;;;;;4.40;1.57;;;9.20;52.70;;;;;;5075481;28;20181;-50
2022/01/24 06:36:34;;;;;;;3.87;1.63;;;9.30;52.80;;;;;;5075455;28;20167;-51
2022/01/24 06:39:01;;;;;;;2.23;1.37;;;9.30;52.80;;;;;;5075520;28;20192;-51
2022/01/24 06:41:32;;;;;;;1.60;1.00;;;9.30;52.60;;;;;;5075333;28;20164;-50
2022/01/24 06:43:58;;;;;;;5.40;1.83;;;9.30;52.50;;;;;;5075610;28;20168;-50
2022/01/24 06:46:23;;;;;;;2.97;1.27;;;9.30;53.20;;;;;;5075255;28;20568;-50
2022/01/24 06:48:49;;;;;;;4.93;1.33;;;9.30;52.50;;;;;;5073434;28;20443;-50
2022/01/24 06:51:17;;;;;;;4.53;1.63;;;9.30;52.70;;;;;;5074969;28;20184;-51
2022/01/24 06:53:42;;;;;;;4.60;1.48;;;9.30;52.60;;;;;;5075176;28;20255;-50
2022/01/24 06:56:08;;;;;;;2.80;1.40;;;9.30;52.70;;;;;;5073831;28;20255;-50
2022/01/24 06:58:35;;;;;;;2.57;1.47;;;9.30;52.80;;;;;;5075279;28;20178;-51
2022/01/24 07:01:03;;;;;;;8.38;1.27;;;9.30;52.70;;;;;;5074958;28;20413;-50
2022/01/24 07:03:28;;;;;;;2.72;1.67;;;9.30;52.70;;;;;;5073527;28;20172;-51
2022/01/24 07:05:54;;;;;;;5.83;2.20;;;9.40;52.50;;;;;;5074996;28;20172;-50
2022/01/24 07:08:20;;;;;;;4.25;2.30;;;9.40;52.50;;;;;;5056958;28;20197;-51
2022/01/24 07:10:45;;;;;;;4.40;2.23;;;9.40;52.50;;;;;;5074861;28;20200;-50
2022/01/24 07:13:11;;;;;;;3.87;1.57;;;9.40;52.60;;;;;;5074960;28;20174;-51
2022/01/24 07:15:53;;;;;;;2.63;1.80;;;9.40;52.60;;;;;;5074662;28;20606;-51
2022/01/24 07:21:02;;;;;;;1.30;0.70;;;9.40;52.30;;;;;;5074616;28;20155;-50
2022/01/24 07:23:28;;;;;;;2.70;1.52;;;9.40;52.30;;;;;;5074133;28;20212;-50
2022/01/24 07:25:54;;;;;;;5.03;2.13;;;9.40;52.30;;;;;;5073220;28;20207;-51
2022/01/24 07:28:20;;;;;;;4.45;2.05;;;9.40;52.30;;;;;;5074469;28;20202;-50
2022/01/24 07:30:46;;;;;;;5.17;1.80;;;9.40;52.30;;;;;;5074486;28;20223;-51
2022/01/24 07:33:15;;;;;;;2.67;1.60;;;9.50;52.30;;;;;;5074392;28;20696;-51
2022/01/24 07:35:43;;;;;;;4.65;1.80;;;9.40;52.20;;;;;;5074279;28;20259;-50
2022/01/24 07:38:09;;;;;;;3.13;2.13;;;9.40;52.40;;;;;;5072901;28;20643;-51
2022/01/24 07:40:39;;;;;;;5.67;1.90;;;9.40;52.70;;;;;;5074217;28;20176;-50
2022/01/24 07:43:12;;;;;;;3.75;1.77;;;9.40;52.80;;;;;;5074200;28;20163;-50
2022/01/24 07:45:46;;;;;;;7.10;2.05;;;9.40;52.80;;;;;;5074588;28;20541;-51
2022/01/24 07:48:14;;;;;;;1.75;1.38;;;9.50;52.80;;;;;;5072859;28;20163;-51
2022/01/24 07:50:46;;;;;;;3.47;1.55;;;9.50;52.70;;;;;;5074219;28;20170;-51
2022/01/24 07:53:14;;;;;;;2.97;1.15;;;9.60;52.60;;;;;;5074021;28;20206;-50
2022/01/24 07:55:40;;;;;;;3.88;1.20;;;9.60;52.50;;;;;;5074182;28;20527;-51
2022/01/24 07:58:07;;;;;;;2.50;1.52;;;9.60;52.50;;;;;;5073911;28;20255;-50
2022/01/24 08:00:34;;;;;;;5.03;2.45;;;9.70;52.60;;;;;;5073376;28;20175;-51
2022/01/24 08:03:00;;;;;;;4.20;2.22;;;9.70;52.50;;;;;;5073510;28;20164;-51
2022/01/24 08:05:27;;;;;;;3.07;1.50;;;9.70;52.50;;;;;;5073808;28;20218;-50
2022/01/24 08:07:53;;;;;;;2.30;0.90;;;9.70;52.50;;;;;;5072519;28;20176;-51
2022/01/24 08:10:18;;;;;;;2.65;1.65;;;9.80;52.50;;;;;;5073746;28;20177;-51
2022/01/24 08:12:44;;;;;;;6.40;1.63;;;9.80;52.40;;;;;;5072371;28;20196;-51
2022/01/24 08:15:14;;;;;;;3.58;3.15;;;9.90;52.50;;;;;;5072309;28;20526;-51
2022/01/24 08:17:44;;;;;;;5.07;1.90;;;9.80;52.40;;;;;;5073828;28;20290;-51
2022/01/24 08:20:11;;;;;;;2.90;2.17;;;9.90;52.50;;;;;;5074017;28;20187;-50
2022/01/24 08:22:37;;;;;;;3.00;2.28;;;9.90;52.50;;;;;;5073388;28;20764;-51
2022/01/24 08:25:04;;;;;;;4.93;2.28;;;9.90;52.50;;;;;;5071153;28;20271;-51
2022/01/24 08:27:34;;;;;;;4.07;2.50;;;9.90;52.50;;;;;;5073705;28;20583;-50
2022/01/24 08:30:03;;;;;;;3.40;1.70;;;10.00;52.60;;;;;;5072220;28;20177;-51
2022/01/24 08:32:29;;;;;;;3.97;2.55;;;10.00;52.60;;;;;;5073515;28;20183;-50
2022/01/24 08:34:56;;;;;;;5.17;2.70;;;10.00;52.60;;;;;;5073461;28;20167;-50
2022/01/24 08:37:22;;;;;;;6.72;2.67;;;10.10;52.60;;;;;;5073390;28;20534;-50
2022/01/24 08:39:48;;;;;;;4.82;2.90;;;10.10;52.60;;;;;;5072107;28;20180;-50
2022/01/24 08:47:29;;;;;;;6.45;2.28;;;10.20;52.70;;;;;;5073369;28;20160;-51
2022/01/24 08:49:55;;;;;;;4.07;2.05;;;10.20;52.60;;;;;;5073478;28;20171;-51
2022/01/24 08:52:21;;;;;;;3.42;2.17;;;10.20;52.60;;;;;;5073205;28;20192;-50
2022/01/24 08:54:47;;;;;;;5.13;2.20;;;10.20;52.60;;;;;;5073439;28;20161;-50
2022/01/24 08:57:13;;;;;;;3.30;1.85;;;10.30;52.60;;;;;;5073211;28;20175;-51
2022/01/24 08:59:40;;;;;;;2.80;1.83;;;10.30;52.60;;;;;;5073266;28;20176;-51
2022/01/24 09:02:06;;;;;;;3.33;1.92;;;10.40;52.60;;;;;;5073484;28;20759;-51
2022/01/24 09:04:32;;;;;;;5.20;2.63;;;10.40;52.60;;;;;;5073184;28;20239;-50
2022/01/24 09:07:02;;;;;;;7.07;2.60;;;10.50;52.70;;;;;;5071790;28;20265;-50
2022/01/24 09:09:28;;;;;;;2.50;1.58;;;10.60;52.60;;;;;;5073461;28;20175;-51
2022/01/24 09:11:54;;;;;;;3.53;2.33;;;10.60;52.60;;;;;;5073004;28;20556;-50
2022/01/24 09:14:20;;;;;;;6.20;2.60;;;10.70;52.60;;;;;;5075739;28;20779;-50
2022/01/24 09:16:46;;;;;;;4.43;2.07;;;10.70;52.50;;;;;;5076981;28;20644;-50
2022/01/24 09:19:12;;;;;;;2.35;1.73;;;10.80;52.50;;;;;;5076982;28;20416;-51
2022/01/24 09:21:38;;;;;;;5.00;2.77;;;10.80;52.40;;;;;;5077252;28;20244;-50
2022/01/24 09:24:04;;;;;;;5.27;2.47;;;10.90;52.40;;;;;;5076656;28;20462;-51
2022/01/24 09:26:30;;;;;;;3.97;2.97;;;10.90;52.30;;;;;;5075435;28;20181;-50
2022/01/24 09:28:56;;;;;;;4.20;2.43;;;11.00;52.30;;;;;;5076799;28;20172;-50
2022/01/24 09:31:22;;;;;;;4.37;2.73;;;11.00;52.00;;;;;;5076569;28;20453;-50
2022/01/24 09:33:49;;;;;;;6.27;3.07;;;11.00;52.10;;;;;;5076927;28;20418;-50
2022/01/24 09:36:15;;;;;;;3.63;1.65;;;11.00;52.20;;;;;;5076598;28;20485;-51
2022/01/24 09:38:41;;;;;;;4.87;2.80;;;11.00;52.20;;;;;;5076544;28;20197;-50
2022/01/24 09:41:09;;;;;;;3.73;1.63;;;11.00;52.10;;;;;;5076604;28;20444;-51
2022/01/24 09:43:35;;;;;;;8.05;3.20;;;11.00;52.20;;;;;;5076732;28;20623;-50
2022/01/24 09:46:01;;;;;;;6.10;3.27;;;11.10;52.20;;;;;;5075184;28;20188;-51
2022/01/24 09:48:28;;;;;;;8.30;3.45;;;11.10;52.20;;;;;;5076533;28;20422;-50
2022/01/24 09:50:54;;;;;;;5.38;2.70;;;11.10;52.30;;;;;;5076302;28;20207;-51
2022/01/24 09:53:22;;;;;;;5.57;3.25;;;11.10;52.30;;;;;;5076272;28;20697;-50
2022/01/24 09:55:47;;;;;;;4.20;2.80;;;11.20;52.20;;;;;;5076319;28;20173;-50
2022/01/24 09:58:13;;;;;;;4.30;2.53;;;11.20;52.20;;;;;;5074936;28;20176;-51
2022/01/24 10:00:39;;;;;;;5.55;2.25;;;11.20;52.00;;;;;;5076209;28;20164;-50
2022/01/24 10:03:08;;;;;;;4.60;2.83;;;11.10;51.70;;;;;;5074844;28;20169;-51
2022/01/24 10:05:39;;;;;;;7.07;3.33;;;11.10;51.90;;;;;;5076189;28;20702;-50
2022/01/24 10:08:14;;;;;;;3.20;1.75;;;11.10;51.90;;;;;;5076063;28;20183;-50
2022/01/24 10:10:48;;;;;;;7.57;3.50;;;11.10;52.10;;;;;;5076113;28;20152;-50
2022/01/24 10:16:37;;;;;;;5.13;2.92;;;11.20;52.00;;;;;;5075920;28;20176;-50
2022/01/24 10:19:20;;;;;;;5.15;2.20;;;11.20;51.90;;;;;;5075898;28;20160;-50
2022/01/24 10:21:50;;;;;;;3.15;2.40;;;11.20;51.90;;;;;;5075648;28;20655;-51
2022/01/24 10:24:34;;;;;;;3.28;2.03;;;11.20;51.80;;;;;;5074790;28;20168;-50
2022/01/24 10:27:27;;;;;;;4.40;2.85;;;11.20;51.70;;;;;;5075896;28;20200;-50
2022/01/24 10:29:56;;;;;;;4.97;2.67;;;11.20;51.80;;;;;;5075772;28;20196;-50
2022/01/24 10:32:46;;;;;;;4.88;1.88;;;11.20;51.70;;;;;;5075504;28;20263;-50
2022/01/24 10:35:24;;;;;;;4.93;2.70;;;11.20;51.70;;;;;;5075599;28;20164;-50
2022/01/24 10:38:18;;;;;;;3.20;2.10;;;11.30;51.90;;;;;;5074769;28;20229;-50
2022/01/24 10:43:22;;;;;;;7.22;3.78;;;11.30;51.60;;;;;;5075390;28;20248;-50
2022/01/24 10:45:49;;;;;;;3.95;2.17;;;11.30;51.60;;;;;;5075696;28;20524;-50
2022/01/24 10:48:21;;;;;;;4.10;2.70;;;11.30;51.70;;;;;;5075280;28;20165;-50
2022/01/24 10:50:47;;;;;;;3.92;1.73;;;11.30;51.70;;;;;;5073971;28;20169;-50
2022/01/24 10:53:15;;;;;;;3.50;2.70;;;11.30;51.70;;;;;;5075127;28;20206;-50
2022/01/24 10:55:43;;;;;;;4.32;2.97;;;11.40;51.80;;;;;;5075274;28;20164;-50
2022/01/24 10:58:16;;;;;;;4.35;2.85;;;11.40;51.80;;;;;;5075239;28;20259;-50
2022/01/24 11:00:43;;;;;;;2.78;1.98;;;11.40;51.70;;;;;;5075039;28;20223;-50
2022/01/24 11:03:16;;;;;;;4.93;3.42;;;11.40;51.70;;;;;;5075009;28;20164;-50
2022/01/24 11:05:43;;;;;;;4.57;3.13;;;11.40;51.60;;;;;;5074989;28;20577;-50
2022/01/24 11:08:12;;;;;;;3.80;2.00;;;11.50;51.80;;;;;;5074939;28;20169;-50
2022/01/24 11:10:40;;;;;;;3.00;1.75;;;11.40;51.20;;;;;;5056900;28;20187;-50
2022/01/24 11:13:07;;;;;;;4.43;2.25;;;11.50;51.30;;;;;;5074685;28;20286;-50
2022/01/24 11:15:35;;;;;;;5.00;2.45;;;11.50;51.20;;;;;;5074858;28;20262;-50
2022/01/24 11:18:02;;;;;;;3.42;2.58;;;11.50;51.10;;;;;;5074684;28;20255;-50
2022/01/24 11:20:32;;;;;;;3.85;1.60;;;11.50;51.00;;;;;;5074680;28;20168;-50
2022/01/24 11:23:01;;;;;;;2.20;1.55;;;11.50;50.90;;;;;;5074394;28;20263;-50
2022/01/24 11:25:37;;;;;;;2.88;1.58;;;11.60;50.90;;;;;;5074778;28;20185;-50
2022/01/24 11:28:04;;;;;;;2.47;2.05;;;11.60;51.00;;;;;;5074570;28;20187;-50
2022/01/24 11:30:56;;;;;;;3.05;2.33;;;11.70;51.10;;;;;;5074532;28;20644;-50
2022/01/24 11:33:43;;;;;;;6.38;2.38;;;11.70;51.00;;;;;;5071147;28;20533;-50
2022/01/24 11:36:11;;;;;;;2.85;2.05;;;11.80;50.80;;;;;;5074252;28;20240;-50
2022/01/24 11:38:42;;;;;;;4.85;1.58;;;11.80;51.20;;;;;;5074504;28;20295;-50
2022/01/24 11:41:43;;;;;;;2.10;1.30;;;11.80;50.10;;;;;;5074563;28;20196;-50
2022/01/24 11:44:15;;;;;;;3.17;2.03;;;11.80;50.10;;;;;;5073807;28;20214;-50
2022/01/24 11:46:56;;;;;;;2.47;1.23;;;11.80;50.20;;;;;;5074359;28;20175;-50
2022/01/24 11:49:27;;;;;;;3.72;1.95;;;11.90;50.50;;;;;;5072819;28;20659;-50
2022/01/24 11:52:07;;;;;;;9.43;4.05;;;11.90;50.40;;;;;;5074082;28;20589;-50
2022/01/24 11:54:45;;;;;;;4.05;1.73;;;11.90;50.10;;;;;;5074174;28;20251;-50
2022/01/24 11:57:27;;;;;;;5.65;2.58;;;11.90;49.20;;;;;;5074025;28;20209;-50
2022/01/24 12:00:05;;;;;;;3.80;2.30;;;11.90;49.10;;;;;;5073948;28;20692;-50
2022/01/24 12:02:41;;;;;;;3.28;1.95;;;11.90;47.80;;;;;;5073872;28;20160;-50
2022/01/24 12:05:17;;;;;;;2.65;1.80;;;11.80;48.50;;;;;;5073805;28;20152;-50
2022/01/24 12:07:47;;;;;;;3.00;1.75;;;11.80;48.50;;;;;;5073918;28;20153;-50
2022/01/24 12:10:46;;;;;;;3.42;1.90;;;11.70;48.70;;;;;;5073504;28;20154;-50
2022/01/24 12:13:28;;;;;;;2.40;1.15;;;11.80;49.00;;;;;;5073396;28;20324;-50
2022/01/24 12:16:14;;;;;;;3.75;1.60;;;11.80;48.60;;;;;;5074031;28;20165;-50
2022/01/24 12:18:39;;;;;;;3.28;2.13;;;11.90;49.10;;;;;;5073806;28;20623;-50
2022/01/24 12:21:15;;;;;;;3.57;1.97;;;11.90;49.00;;;;;;5073647;28;20174;-50
2022/01/24 12:23:47;;;;;;;3.17;2.25;;;12.00;48.50;;;;;;5072207;28;20277;-50
2022/01/24 12:26:13;;;;;;;6.70;1.95;;;12.00;48.60;;;;;;5073535;28;20168;-50
2022/01/24 12:28:41;;;;;;;2.27;1.33;;;12.00;47.90;;;;;;5073472;28;20167;-50
2022/01/24 12:31:20;;;;;;;2.70;1.67;;;12.00;48.40;;;;;;5073429;28;20651;-50
2022/01/24 12:33:54;;;;;;;4.82;1.77;;;12.00;48.60;;;;;;5073569;28;20161;-50
2022/01/24 12:37:00;;;;;;;4.03;1.70;;;12.00;48.80;;;;;;5073438;28;20207;-50
2022/01/24 12:39:33;;;;;;;2.63;1.05;;;12.00;48.70;;;;;;5070388;28;20413;-50
2022/01/24 12:42:13;;;;;;;3.60;2.10;;;12.00;48.60;;;;;;5073703;28;20161;-50
2022/01/24 12:47:22;;;;;;;2.75;1.73;;;11.90;47.80;;;;;;5072803;28;20168;-50
2022/01/24 12:49:51;;;;;;;3.67;2.25;;;11.90;47.40;;;;;;5073459;28;20176;-50
2022/01/24 12:52:29;;;;;;;2.70;1.83;;;11.80;47.20;;;;;;5073445;28;20226;-50
2022/01/24 12:54:59;;;;;;;2.45;1.45;;;11.70;47.50;;;;;;5073288;28;20613;-50
2022/01/24 12:57:32;;;;;;;2.33;1.35;;;11.70;47.60;;;;;;5073229;28;20581;-50
2022/01/24 13:00:03;;;;;;;3.05;1.58;;;11.70;48.00;;;;;;5073473;28;20167;-50
2022/01/24 13:02:31;;;;;;;2.83;2.03;;;11.70;48.30;;;;;;5073324;28;20149;-50
2022/01/24 13:05:02;;;;;;;3.70;2.10;;;11.70;48.40;;;;;;5073172;28;20188;-50
2022/01/24 13:07:30;;;;;;;2.28;1.15;;;11.80;48.40;;;;;;5072109;28;20226;-50
2022/01/24 13:10:03;;;;;;;4.53;1.88;;;11.80;48.40;;;;;;5073118;28;20655;-50
2022/01/24 13:12:28;;;;;;;4.30;2.20;;;11.80;48.40;;;;;;5073300;28;20184;-50
2022/01/24 13:14:58;;;;;;;4.80;2.37;;;11.80;48.40;;;;;;5073132;28;20297;-50
2022/01/24 13:22:58;;;;;;;2.20;1.30;;;11.80;47.90;;;;;;5072984;28;20216;-50
2022/01/24 13:25:26;;;;;;;4.47;1.55;;;11.70;47.80;;;;;;5073180;28;20172;-50
2022/01/24 13:28:01;;;;;;;2.88;2.42;;;11.70;47.80;;;;;;5071568;28;20651;-50
2022/01/24 13:30:30;;;;;;;2.65;2.35;;;11.60;47.60;;;;;;5073066;28;20180;-50
2022/01/24 13:32:59;;;;;;;5.90;2.38;;;11.60;47.50;;;;;;5072769;28;20228;-50
2022/01/24 13:35:26;;;;;;;2.20;1.48;;;11.50;47.30;;;;;;5073089;28;20522;-50
2022/01/24 13:37:59;;;;;;;2.00;1.55;;;11.50;47.80;;;;;;5072828;28;20180;-50
2022/01/24 13:40:34;;;;;;;2.92;1.60;;;11.50;48.00;;;;;;5072788;28;20181;-50
2022/01/24 13:43:00;;;;;;;3.63;2.33;;;11.50;47.80;;;;;;5072759;28;20214;-50
2022/01/24 13:45:26;;;;;;;3.60;1.80;;;11.50;47.90;;;;;;5072735;28;20180;-50
2022/01/24 13:47:59;;;;;;;3.73;2.13;;;11.50;47.70;;;;;;5071422;28;20414;-50
2022/01/24 13:50:26;;;;;;;3.75;1.45;;;11.50;47.50;;;;;;5072902;28;20490;-50
2022/01/24 13:52:53;;;;;;;3.13;2.13;;;11.40;47.60;;;;;;5071829;28;20253;-50
2022/01/24 13:55:24;;;;;;;2.65;1.30;;;11.50;47.90;;;;;;5072702;28;20180;-50
2022/01/24 13:57:52;;;;;;;2.65;1.58;;;11.50;48.10;;;;;;5072696;28;20206;-50
2022/01/24 14:00:27;;;;;;;3.90;1.80;;;11.50;48.10;;;;;;5074506;28;20165;-50
2022/01/24 14:03:07;;;;;;;3.78;1.88;;;11.50;48.00;;;;;;5076699;28;20167;-50
2022/01/24 14:05:32;;;;;;;5.38;1.63;;;11.40;47.70;;;;;;5074841;28;20183;-50
2022/01/24 14:08:15;;;;;;;3.90;2.27;;;11.40;48.00;;;;;;5076060;28;20177;-49
2022/01/24 14:10:41;;;;;;;1.77;1.58;;;11.40;48.20;;;;;;5076278;28;20229;-50
2022/01/24 14:13:08;;;;;;;4.93;2.45;;;11.40;48.20;;;;;;5075946;28;20192;-50
2022/01/24 14:20:32;;;;;;;4.05;1.38;;;11.40;48.20;;;;;;5076116;28;20632;-50
2022/01/24 14:22:58;;;;;;;3.40;1.80;;;11.40;48.40;;;;;;5075642;28;20228;-50
2022/01/24 14:25:32;;;;;;;4.17;1.97;;;11.40;48.30;;;;;;5074402;28;20417;-50
2022/01/24 14:28:03;;;;;;;2.40;1.38;;;11.40;48.40;;;;;;5075600;28;20175;-50
2022/01/24 14:30:34;;;;;;;4.53;2.42;;;11.40;48.60;;;;;;5075604;28;20508;-50
2022/01/24 14:33:02;;;;;;;4.85;2.60;;;11.40;48.60;;;;;;5075829;28;20201;-50
2022/01/24 14:35:30;;;;;;;4.20;2.42;;;11.40;48.70;;;;;;5075561;28;20632;-49
2022/01/24 14:37:58;;;;;;;2.08;1.52;;;11.40;48.80;;;;;;5075345;28;20169;-50
2022/01/24 14:40:35;;;;;;;3.05;1.48;;;11.40;48.80;;;;;;5075433;28;20264;-50
2022/01/24 14:44:53;;;;;;;4.63;2.17;;;11.40;48.80;;;;;;5075436;28;20161;-50
2022/01/24 14:45:47;;;;;;;4.72;2.92;;;11.40;48.80;;;;;;5075459;28;20171;-50
2022/01/24 14:48:13;;;;;;;3.00;1.70;;;11.40;48.70;;;;;;5075306;28;20160;-50
2022/01/24 14:50:38;;;;;;;5.57;2.60;;;11.40;48.70;;;;;;5075195;28;20632;-50
2022/01/24 14:53:07;;;;;;;3.00;2.23;;;11.30;48.90;;;;;;5075047;28;20960;-50
2022/01/24 14:55:33;;;;;;;5.63;3.00;;;11.30;49.10;;;;;;5075111;28;20175;-50
2022/01/24 14:57:59;;;;;;;2.88;2.55;;;11.30;49.30;;;;;;5075011;28;20247;-50
2022/01/24 15:00:26;;;;;;;2.63;1.43;;;11.20;49.30;;;;;;5074995;28;20691;-50
2022/01/24 15:02:54;;;;;;;3.15;1.70;;;11.20;49.30;;;;;;5075032;28;20164;-50
2022/01/24 15:05:20;;;;;;;2.45;1.45;;;11.20;49.40;;;;;;5075004;28;20191;-50
2022/01/24 15:07:46;;;;;;;1.90;1.30;;;11.20;49.40;;;;;;5074907;28;20184;-50
2022/01/24 15:10:12;;;;;;;2.25;0.90;;;11.30;49.50;;;;;;5074337;28;20173;-50
2022/01/24 15:12:44;;;;;;;3.23;2.10;;;11.30;49.30;;;;;;5074845;28;20192;-50
2022/01/24 15:15:14;;;;;;;3.42;2.33;;;11.30;49.10;;;;;;5074689;28;20904;-50
2022/01/24 15:25:38;;;;;;;3.35;0.95;;;11.30;48.90;;;;;;5074595;28;20631;-50